Time;durP1;ratioP1;P1;durP2;ratioP2;P2;SDS_P1;SDS_P2;PMS_P1;PMS_P2;Temp;Humidity;BMP_temperature;BMP_pressure;BME280_temperature;BME280_humidity;BME280_pressure;Samples;Min_cycle;Max_cycle;Signal;HPM_P1;HPM_P2
2020/12/27 00:02:03;;;;;;;9.77;4.72;;;-1.00;99.90;;;;;;5014652;28;20249;-86
2020/12/27 00:04:29;;;;;;;9.30;4.65;;;-1.00;99.90;;;;;;5017456;28;20208;-87
2020/12/27 00:06:56;;;;;;;4.38;2.90;;;-1.00;99.90;;;;;;5016274;28;20672;-86
2020/12/27 00:09:22;;;;;;;4.55;3.20;;;-1.10;99.90;;;;;;5017264;28;20869;-86
2020/12/27 00:11:52;;;;;;;5.93;3.63;;;-1.10;99.90;;;;;;5017412;28;20299;-86
2020/12/27 00:14:19;;;;;;;5.25;3.88;;;-1.10;99.90;;;;;;5017412;28;20206;-86
2020/12/27 00:16:45;;;;;;;6.88;4.00;;;-1.10;99.90;;;;;;5017291;28;20211;-87
2020/12/27 00:19:11;;;;;;;5.80;3.72;;;-1.10;99.90;;;;;;5016985;28;20261;-86
2020/12/27 00:21:38;;;;;;;4.07;3.67;;;-1.20;99.90;;;;;;5016119;28;20618;-85
2020/12/27 00:24:05;;;;;;;4.55;3.83;;;-1.10;99.90;;;;;;5017486;28;20290;-85
2020/12/27 00:26:31;;;;;;;9.63;3.75;;;-1.10;99.90;;;;;;5017279;28;20298;-85
2020/12/27 00:28:58;;;;;;;6.82;3.95;;;-1.10;99.90;;;;;;5017221;28;20717;-86
2020/12/27 00:31:25;;;;;;;7.03;4.00;;;-1.10;99.90;;;;;;5017065;28;20207;-86
2020/12/27 00:33:51;;;;;;;5.75;4.45;;;-1.10;99.90;;;;;;5016726;28;20295;-85
2020/12/27 00:36:18;;;;;;;6.57;4.28;;;-1.10;99.90;;;;;;5015850;28;20204;-87
2020/12/27 00:38:45;;;;;;;3.42;3.10;;;-1.10;99.90;;;;;;5001903;28;20283;-87
2020/12/27 00:41:11;;;;;;;6.53;3.75;;;-1.10;99.90;;;;;;4997513;28;20207;-86
2020/12/27 00:43:37;;;;;;;8.85;5.00;;;-1.10;99.90;;;;;;4997454;28;20287;-86
2020/12/27 00:46:04;;;;;;;6.07;4.07;;;-1.10;99.90;;;;;;4997075;28;20727;-87
2020/12/27 00:48:31;;;;;;;8.45;3.55;;;-1.10;99.90;;;;;;4997082;28;20264;-87
2020/12/27 00:51:00;;;;;;;8.23;4.70;;;-1.00;99.90;;;;;;4995785;28;20210;-86
2020/12/27 00:53:26;;;;;;;4.47;3.78;;;-1.00;99.90;;;;;;4996490;28;20243;-86
2020/12/27 00:55:52;;;;;;;13.35;6.35;;;-1.10;99.90;;;;;;4996997;28;20322;-87
2020/12/27 00:58:19;;;;;;;5.05;4.30;;;-1.20;99.90;;;;;;4997070;28;20208;-86
2020/12/27 01:00:45;;;;;;;6.35;4.68;;;-1.20;99.90;;;;;;4996846;28;20232;-86
2020/12/27 01:03:12;;;;;;;7.50;5.30;;;-1.10;99.90;;;;;;4996977;28;20204;-86
2020/12/27 01:05:38;;;;;;;5.07;3.95;;;-1.10;99.90;;;;;;4995702;28;20214;-86
2020/12/27 01:08:05;;;;;;;7.97;4.40;;;-1.10;99.90;;;;;;5009997;28;20324;-87
2020/12/27 01:10:31;;;;;;;3.97;3.50;;;-1.10;99.90;;;;;;5016236;28;20326;-87
2020/12/27 01:12:57;;;;;;;7.22;3.83;;;-1.10;99.90;;;;;;5016098;28;20238;-88
2020/12/27 01:15:24;;;;;;;7.20;3.45;;;-1.10;99.90;;;;;;5015123;28;20723;-86
2020/12/27 01:17:50;;;;;;;5.50;3.95;;;-1.10;99.90;;;;;;5016142;28;20298;-86
2020/12/27 01:20:17;;;;;;;3.40;3.10;;;-1.10;99.90;;;;;;5016030;28;20306;-86
2020/12/27 01:22:43;;;;;;;8.95;5.07;;;-1.10;99.90;;;;;;5014933;28;20204;-86
2020/12/27 01:25:10;;;;;;;4.82;4.00;;;-1.20;99.90;;;;;;5015755;28;20602;-86
2020/12/27 01:27:36;;;;;;;10.80;3.42;;;-1.10;99.90;;;;;;5015943;28;20204;-85
2020/12/27 01:30:03;;;;;;;6.53;4.15;;;-1.10;99.90;;;;;;5015615;28;20235;-86
2020/12/27 01:32:30;;;;;;;4.50;3.72;;;-1.20;99.90;;;;;;5015624;28;20690;-87
2020/12/27 01:34:56;;;;;;;8.65;4.00;;;-1.10;99.90;;;;;;5014653;28;20341;-86
2020/12/27 01:37:23;;;;;;;3.75;3.08;;;-1.20;99.90;;;;;;5014360;28;20207;-87
2020/12/27 01:39:50;;;;;;;10.25;4.20;;;-1.20;99.90;;;;;;5015953;28;20738;-86
2020/12/27 01:42:16;;;;;;;8.32;4.32;;;-1.20;99.90;;;;;;5015793;28;20298;-88
2020/12/27 01:44:42;;;;;;;7.68;3.72;;;-1.10;99.90;;;;;;5011610;28;20671;-87
2020/12/27 01:47:16;;;;;;;4.05;3.15;;;-1.10;99.90;;;;;;5015372;28;20687;-86
2020/12/27 01:49:43;;;;;;;3.55;2.92;;;-1.10;99.90;;;;;;5015236;28;20313;-87
2020/12/27 01:52:09;;;;;;;5.22;3.05;;;-1.00;99.90;;;;;;5014194;28;20306;-87
2020/12/27 01:54:38;;;;;;;6.32;3.47;;;-1.00;99.90;;;;;;5015549;28;20227;-87
2020/12/27 01:57:11;;;;;;;4.78;2.88;;;-1.10;99.90;;;;;;5015286;28;20679;-87
2020/12/27 01:59:38;;;;;;;2.92;2.60;;;-1.10;99.90;;;;;;5015448;28;20751;-85
2020/12/27 02:02:05;;;;;;;7.88;3.40;;;-1.10;99.90;;;;;;5015343;28;20634;-86
2020/12/27 02:04:32;;;;;;;6.60;3.70;;;-1.00;99.90;;;;;;5015676;28;20645;-87
2020/12/27 02:06:58;;;;;;;9.05;4.07;;;-1.00;99.90;;;;;;5014063;28;20299;-87
2020/12/27 02:09:25;;;;;;;13.82;4.05;;;-1.00;99.90;;;;;;5015510;28;20381;-87
2020/12/27 02:12:03;;;;;;;8.63;3.42;;;-1.10;99.90;;;;;;5013931;28;20734;-87
2020/12/27 02:14:30;;;;;;;5.68;3.83;;;-1.00;99.90;;;;;;5015214;28;20235;-85
2020/12/27 02:16:56;;;;;;;3.42;3.10;;;-1.00;99.90;;;;;;5014938;28;20212;-88
2020/12/27 02:20:03;;;;;;;5.70;3.90;;;-1.00;99.90;;;;;;5006019;28;20315;-87
2020/12/27 02:22:29;;;;;;;7.78;3.08;;;-1.00;99.90;;;;;;4994611;28;20258;-88
2020/12/27 02:24:56;;;;;;;10.38;3.80;;;-0.90;99.90;;;;;;4995380;28;20291;-88
2020/12/27 02:27:23;;;;;;;4.80;3.92;;;-0.90;99.90;;;;;;4995297;28;20294;-87
2020/12/27 02:29:49;;;;;;;7.28;3.15;;;-0.90;99.90;;;;;;4995287;28;20324;-88
2020/12/27 02:32:15;;;;;;;4.88;2.90;;;-0.90;99.90;;;;;;4997530;28;20302;-87
2020/12/27 02:34:42;;;;;;;5.40;4.30;;;-1.00;99.90;;;;;;5015287;28;20295;-87
2020/12/27 02:37:08;;;;;;;7.95;4.40;;;-1.00;99.90;;;;;;5011180;28;20325;-87
2020/12/27 02:39:35;;;;;;;5.18;3.78;;;-1.00;99.90;;;;;;5019085;28;20298;-87
2020/12/27 02:42:02;;;;;;;4.90;3.45;;;-1.10;99.90;;;;;;5036252;28;20212;-87
2020/12/27 02:46:54;;;;;;;6.45;4.30;;;-1.10;99.90;;;;;;5023697;28;20246;-87
2020/12/27 02:49:21;;;;;;;4.60;3.20;;;-1.10;99.90;;;;;;5017632;28;20318;-88
2020/12/27 02:51:48;;;;;;;5.28;3.70;;;-1.10;99.90;;;;;;5015804;28;20303;-86
2020/12/27 02:54:14;;;;;;;5.90;4.15;;;-1.00;99.90;;;;;;5014843;28;20781;-87
2020/12/27 02:56:41;;;;;;;6.38;3.47;;;-1.00;99.90;;;;;;5014316;28;20299;-85
2020/12/27 02:59:08;;;;;;;5.03;2.90;;;-1.00;99.90;;;;;;5005950;28;20322;-87
2020/12/27 03:01:34;;;;;;;4.50;3.38;;;-1.00;99.90;;;;;;5013554;28;20294;-86
2020/12/27 03:04:01;;;;;;;6.25;3.45;;;-1.00;99.90;;;;;;5013697;28;20294;-87
2020/12/27 03:06:27;;;;;;;7.40;4.75;;;-1.00;99.90;;;;;;5012579;28;20287;-87
2020/12/27 03:08:54;;;;;;;5.72;3.80;;;-0.90;99.90;;;;;;5013211;28;20338;-86
2020/12/27 03:11:21;;;;;;;8.57;3.53;;;-0.90;99.90;;;;;;5012554;28;20208;-87
2020/12/27 03:13:48;;;;;;;4.32;3.05;;;-0.90;99.90;;;;;;5013016;28;20608;-87
2020/12/27 03:16:16;;;;;;;5.18;2.60;;;-0.80;99.90;;;;;;5013538;28;20207;-86
2020/12/27 03:18:42;;;;;;;4.00;2.83;;;-0.90;99.90;;;;;;5013425;28;20271;-86
2020/12/27 03:21:08;;;;;;;4.28;3.88;;;-0.90;99.90;;;;;;5012336;28;20211;-86
2020/12/27 03:23:35;;;;;;;4.20;3.03;;;-1.00;99.90;;;;;;5013260;28;20337;-87
2020/12/27 03:26:01;;;;;;;5.30;3.60;;;-1.00;99.90;;;;;;5013124;28;20242;-87
2020/12/27 03:28:27;;;;;;;5.70;3.05;;;-1.00;99.90;;;;;;5012890;28;20342;-87
2020/12/27 03:30:54;;;;;;;4.45;3.53;;;-1.00;99.90;;;;;;5013278;28;20307;-86
2020/12/27 03:33:21;;;;;;;3.60;2.70;;;-1.00;99.90;;;;;;5013302;28;20298;-88
2020/12/27 03:35:47;;;;;;;3.83;3.42;;;-1.00;99.90;;;;;;5011002;28;20303;-87
2020/12/27 03:38:15;;;;;;;4.20;3.90;;;-1.10;99.90;;;;;;5012502;28;20234;-87
2020/12/27 03:40:41;;;;;;;3.50;2.63;;;-1.10;99.90;;;;;;5013114;28;20294;-87
2020/12/27 03:43:07;;;;;;;4.70;3.45;;;-1.10;99.90;;;;;;5012906;28;20645;-88
2020/12/27 03:45:34;;;;;;;5.43;2.72;;;-1.10;99.90;;;;;;5013126;28;20286;-88
2020/12/27 03:48:01;;;;;;;4.88;2.95;;;-1.10;99.90;;;;;;5012997;28;20212;-87
2020/12/27 03:50:28;;;;;;;4.43;3.50;;;-1.10;99.90;;;;;;5013044;28;20281;-86
2020/12/27 03:52:54;;;;;;;5.90;2.90;;;-1.10;99.90;;;;;;5011384;28;20290;-88
2020/12/27 03:55:21;;;;;;;3.67;3.05;;;-1.10;99.90;;;;;;5012758;28;20298;-88
2020/12/27 03:57:47;;;;;;;4.05;2.90;;;-1.10;99.90;;;;;;5012683;28;20203;-86
2020/12/27 04:00:13;;;;;;;4.72;2.95;;;-1.10;99.90;;;;;;5012906;28;20216;-87
2020/12/27 04:02:40;;;;;;;5.05;3.28;;;-1.10;99.90;;;;;;5012807;28;20654;-87
2020/12/27 04:05:06;;;;;;;5.03;2.42;;;-1.20;99.90;;;;;;5012591;28;20759;-86
2020/12/27 04:07:33;;;;;;;5.80;3.63;;;-1.10;99.90;;;;;;5011374;28;20291;-86
2020/12/27 04:10:00;;;;;;;5.38;3.33;;;-1.10;99.90;;;;;;5012554;28;20342;-87
2020/12/27 04:12:27;;;;;;;4.72;2.65;;;-1.10;99.90;;;;;;5012230;28;20330;-85
2020/12/27 04:14:53;;;;;;;5.20;3.08;;;-1.10;99.90;;;;;;5012991;28;20290;-88
2020/12/27 04:17:20;;;;;;;6.80;3.75;;;-1.10;99.90;;;;;;5013071;28;20318;-87
2020/12/27 04:19:46;;;;;;;3.58;2.90;;;-1.10;99.90;;;;;;5012582;28;20322;-87
2020/12/27 04:22:13;;;;;;;5.88;3.45;;;-1.20;99.90;;;;;;5011128;28;20239;-86
2020/12/27 04:24:40;;;;;;;8.02;3.72;;;-1.20;99.90;;;;;;5012686;28;20214;-86
2020/12/27 04:27:07;;;;;;;7.63;2.85;;;-1.10;99.90;;;;;;5012482;28;20806;-86
2020/12/27 04:29:34;;;;;;;4.68;2.35;;;-1.10;99.90;;;;;;5012419;28;20668;-87
2020/12/27 04:32:00;;;;;;;4.65;3.13;;;-1.10;99.90;;;;;;5010861;28;20311;-86
2020/12/27 04:34:26;;;;;;;3.53;3.22;;;-1.10;99.90;;;;;;5012210;28;20204;-86
2020/12/27 04:36:53;;;;;;;3.28;2.45;;;-1.10;99.90;;;;;;5011364;28;20294;-85
2020/12/27 04:39:19;;;;;;;6.22;3.95;;;-1.10;99.90;;;;;;5012484;28;20253;-86
2020/12/27 04:41:47;;;;;;;8.10;3.00;;;-1.10;99.90;;;;;;5011303;28;20294;-88
2020/12/27 04:44:15;;;;;;;2.53;2.33;;;-1.00;99.90;;;;;;5012205;28;20237;-85
2020/12/27 04:46:41;;;;;;;5.43;3.55;;;-1.00;99.90;;;;;;5012342;28;20295;-86
2020/12/27 04:49:09;;;;;;;5.13;3.40;;;-0.90;99.90;;;;;;5006639;28;20319;-85
2020/12/27 04:51:36;;;;;;;5.28;2.95;;;-0.80;99.90;;;;;;5014863;28;20215;-86
2020/12/27 04:54:03;;;;;;;3.75;3.00;;;-0.80;99.90;;;;;;5015907;28;20238;-85
2020/12/27 04:56:29;;;;;;;6.47;3.95;;;-0.80;99.90;;;;;;5016029;28;20631;-85
2020/12/27 04:58:57;;;;;;;4.55;3.53;;;-0.70;99.90;;;;;;5015551;28;20238;-84
2020/12/27 05:01:24;;;;;;;4.53;3.17;;;-0.70;99.90;;;;;;5015865;28;20291;-87
2020/12/27 05:03:52;;;;;;;5.65;3.63;;;-0.70;99.90;;;;;;5015847;28;20306;-84
2020/12/27 05:06:18;;;;;;;7.75;4.13;;;-0.70;99.90;;;;;;5014474;28;20660;-84
2020/12/27 05:08:45;;;;;;;7.00;3.72;;;-0.70;99.90;;;;;;5015406;28;20339;-86
2020/12/27 05:11:14;;;;;;;7.30;4.95;;;-0.70;99.90;;;;;;5015485;28;20573;-86
2020/12/27 05:13:44;;;;;;;11.27;5.57;;;-0.70;99.90;;;;;;5015356;28;20215;-84
2020/12/27 05:16:13;;;;;;;7.05;4.55;;;-0.80;99.90;;;;;;5015455;28;20298;-83
2020/12/27 05:18:40;;;;;;;7.88;6.00;;;-0.80;99.90;;;;;;5015587;28;20242;-83
2020/12/27 05:21:07;;;;;;;8.95;5.45;;;-0.80;99.90;;;;;;5014323;28;20210;-84
2020/12/27 05:23:33;;;;;;;7.28;5.97;;;-0.90;99.90;;;;;;5015607;28;20298;-84
2020/12/27 05:26:05;;;;;;;15.07;9.05;;;-1.00;99.90;;;;;;5015532;28;20247;-83
2020/12/27 05:28:33;;;;;;;19.63;10.68;;;-1.10;99.90;;;;;;5015001;28;20290;-84
2020/12/27 05:31:09;;;;;;;12.27;6.65;;;-1.10;99.90;;;;;;5015066;28;20765;-83
2020/12/27 05:33:38;;;;;;;6.57;5.85;;;-1.10;99.90;;;;;;5014276;28;20322;-83
2020/12/27 05:36:05;;;;;;;8.93;7.07;;;-1.10;99.90;;;;;;5014082;28;20715;-84
2020/12/27 05:38:31;;;;;;;8.52;5.45;;;-1.10;99.90;;;;;;5015023;28;20222;-84
2020/12/27 05:40:58;;;;;;;9.25;5.15;;;-1.20;99.90;;;;;;5012096;28;20273;-85
2020/12/27 05:43:24;;;;;;;5.05;4.22;;;-1.20;99.90;;;;;;5014619;28;20656;-83
2020/12/27 05:45:54;;;;;;;7.82;4.70;;;-1.20;99.90;;;;;;5015198;28;20943;-84
2020/12/27 05:48:21;;;;;;;10.50;8.13;;;-1.20;99.90;;;;;;5015060;28;20214;-83
2020/12/27 05:50:51;;;;;;;9.35;5.55;;;-1.20;99.90;;;;;;5013605;28;20325;-84
2020/12/27 05:53:20;;;;;;;5.78;3.45;;;-1.40;99.90;;;;;;5014868;28;20257;-83
2020/12/27 05:55:48;;;;;;;4.35;3.58;;;-1.40;99.90;;;;;;5014700;28;20303;-85
2020/12/27 05:58:20;;;;;;;8.20;4.50;;;-1.40;99.90;;;;;;5021397;28;20244;-83
2020/12/27 06:00:52;;;;;;;4.07;3.55;;;-1.40;99.90;;;;;;5014386;28;20753;-85
2020/12/27 06:03:20;;;;;;;3.58;3.00;;;-1.40;99.90;;;;;;5014920;28;20207;-85
2020/12/27 06:06:17;;;;;;;8.52;4.70;;;-1.40;99.90;;;;;;5013622;28;20207;-84
2020/12/27 06:09:03;;;;;;;5.53;3.58;;;-1.40;99.90;;;;;;5014468;28;20236;-84
2020/12/27 06:11:45;;;;;;;8.10;4.47;;;-1.40;99.90;;;;;;5002793;28;20663;-85
2020/12/27 06:14:47;;;;;;;6.53;4.63;;;-1.30;99.90;;;;;;5013131;28;20231;-86
2020/12/27 06:17:14;;;;;;;6.82;4.85;;;-1.30;99.90;;;;;;5014603;28;20234;-85
2020/12/27 06:19:56;;;;;;;7.05;4.03;;;-1.30;99.90;;;;;;5014602;28;20239;-87
2020/12/27 06:22:29;;;;;;;7.72;3.75;;;-1.20;99.90;;;;;;5011144;28;20214;-86
2020/12/27 06:24:59;;;;;;;4.65;4.25;;;-1.20;99.90;;;;;;5015034;28;20243;-86
2020/12/27 06:27:27;;;;;;;6.53;4.13;;;-1.10;99.90;;;;;;5020155;28;20207;-86
2020/12/27 06:29:59;;;;;;;8.63;4.90;;;-1.10;99.90;;;;;;5014393;28;20235;-84
2020/12/27 06:32:31;;;;;;;10.25;4.28;;;-1.10;99.90;;;;;;5014237;28;20301;-85
2020/12/27 06:35:01;;;;;;;5.57;4.40;;;-1.00;99.90;;;;;;4980894;28;20406;-85
2020/12/27 06:37:42;;;;;;;6.80;4.20;;;-1.00;99.90;;;;;;5012907;28;20722;-85
2020/12/27 06:40:09;;;;;;;9.57;4.47;;;-1.00;99.90;;;;;;5014212;28;20754;-85
2020/12/27 06:42:35;;;;;;;9.82;4.50;;;-1.00;99.90;;;;;;5013816;28;20295;-87
2020/12/27 06:45:01;;;;;;;6.32;5.68;;;-1.00;99.90;;;;;;5014032;28;20527;-85
2020/12/27 06:47:48;;;;;;;5.93;4.10;;;-1.00;99.90;;;;;;5013920;28;20242;-87
2020/12/27 06:50:16;;;;;;;5.85;4.40;;;-1.00;99.90;;;;;;5013784;28;20700;-85
2020/12/27 06:52:43;;;;;;;8.05;5.72;;;-1.10;99.90;;;;;;5012688;28;20207;-89
2020/12/27 06:55:10;;;;;;;7.65;4.38;;;-1.00;99.90;;;;;;5013774;28;20298;-86
2020/12/27 06:57:41;;;;;;;9.05;6.28;;;-1.00;99.90;;;;;;5013713;28;20242;-86
2020/12/27 07:00:20;;;;;;;5.63;3.85;;;-1.00;99.90;;;;;;5013898;28;20263;-86
2020/12/27 07:02:49;;;;;;;5.93;4.55;;;-1.00;99.90;;;;;;5013594;28;20290;-85
2020/12/27 07:05:29;;;;;;;7.95;4.97;;;-1.00;99.90;;;;;;5013562;28;20750;-84
2020/12/27 07:07:56;;;;;;;9.77;7.20;;;-0.90;99.90;;;;;;5010685;28;20211;-83
2020/12/27 07:10:24;;;;;;;7.85;4.90;;;-0.90;99.90;;;;;;5013625;28;20235;-85
2020/12/27 07:12:50;;;;;;;9.68;5.07;;;-0.80;99.90;;;;;;5012938;28;20297;-84
2020/12/27 07:15:17;;;;;;;5.53;3.70;;;-0.80;99.90;;;;;;5013477;28;20326;-84
2020/12/27 07:17:45;;;;;;;25.33;14.98;;;-0.80;99.90;;;;;;5013520;28;20208;-87
2020/12/27 07:20:15;;;;;;;8.30;5.47;;;-0.80;99.90;;;;;;5013181;28;20258;-87
2020/12/27 07:22:42;;;;;;;16.10;7.45;;;-0.80;99.90;;;;;;5012171;28;20204;-82
2020/12/27 07:25:13;;;;;;;20.20;11.10;;;-0.80;99.90;;;;;;5013089;28;20254;-84
2020/12/27 07:27:41;;;;;;;5.93;3.40;;;-0.80;99.90;;;;;;4996000;28;20299;-84
2020/12/27 07:30:08;;;;;;;7.82;6.28;;;-0.80;99.90;;;;;;4974211;28;20319;-86
2020/12/27 07:32:43;;;;;;;14.55;9.77;;;-0.80;99.90;;;;;;4974469;28;20300;-84
2020/12/27 07:35:10;;;;;;;7.53;5.40;;;-0.80;99.90;;;;;;4999569;28;20628;-84
2020/12/27 07:37:37;;;;;;;8.48;5.05;;;-0.70;99.90;;;;;;5006536;28;20219;-82
2020/12/27 07:40:05;;;;;;;6.30;3.97;;;-0.60;99.90;;;;;;4976421;28;20717;-83
2020/12/27 07:42:33;;;;;;;8.63;5.15;;;-0.60;99.90;;;;;;4974166;28;20292;-83
2020/12/27 07:45:02;;;;;;;15.70;9.38;;;-0.60;99.90;;;;;;4974231;28;20241;-82
2020/12/27 07:47:28;;;;;;;12.43;7.13;;;-0.60;99.90;;;;;;4974883;28;20216;-83
2020/12/27 07:50:13;;;;;;;10.75;8.02;;;-0.60;99.90;;;;;;4975727;28;20268;-83
2020/12/27 07:52:45;;;;;;;5.45;4.95;;;-0.60;99.90;;;;;;4975235;28;20307;-83
2020/12/27 07:55:19;;;;;;;8.35;4.97;;;-0.60;99.90;;;;;;4973685;28;20299;-84
2020/12/27 07:57:47;;;;;;;6.15;4.03;;;-0.60;99.90;;;;;;4973815;28;20205;-83
2020/12/27 08:00:13;;;;;;;8.98;5.28;;;-0.60;99.90;;;;;;4973799;28;20304;-82
2020/12/27 08:02:43;;;;;;;6.03;4.80;;;-0.50;99.90;;;;;;4974177;28;20682;-83
2020/12/27 08:05:11;;;;;;;8.13;6.00;;;-0.50;99.90;;;;;;5012276;28;20302;-83
2020/12/27 08:07:37;;;;;;;11.85;10.75;;;-0.50;99.90;;;;;;5011427;28;20203;-83
2020/12/27 08:10:14;;;;;;;7.45;5.60;;;-0.50;99.90;;;;;;5012635;28;20334;-84
2020/12/27 08:12:48;;;;;;;7.82;5.45;;;-0.40;99.90;;;;;;5012580;28;20203;-85
2020/12/27 08:15:15;;;;;;;6.60;4.63;;;-0.50;99.90;;;;;;5012687;28;20249;-85
2020/12/27 08:17:52;;;;;;;6.05;4.55;;;-0.40;99.90;;;;;;5012526;28;20303;-84
2020/12/27 08:20:18;;;;;;;5.55;4.13;;;-0.40;99.90;;;;;;5012359;28;20203;-83
2020/12/27 08:23:04;;;;;;;4.07;3.00;;;-0.30;99.90;;;;;;5011539;28;20298;-83
2020/12/27 08:25:31;;;;;;;11.95;5.45;;;-0.40;99.90;;;;;;5016446;28;20290;-86
2020/12/27 08:28:00;;;;;;;7.15;5.05;;;-0.30;99.90;;;;;;5016375;28;20258;-83
2020/12/27 08:30:28;;;;;;;5.65;4.63;;;-0.30;99.90;;;;;;5016350;28;20321;-84
2020/12/27 08:33:21;;;;;;;13.52;5.45;;;-0.20;99.90;;;;;;5016271;28;20239;-82
2020/12/27 08:35:49;;;;;;;6.18;5.50;;;-0.20;99.90;;;;;;4967675;28;20216;-84
2020/12/27 08:38:25;;;;;;;9.48;5.95;;;-0.10;99.90;;;;;;5016181;28;20731;-84
2020/12/27 08:40:59;;;;;;;12.82;7.32;;;-0.10;99.90;;;;;;5016158;28;20230;-82
2020/12/27 08:43:36;;;;;;;11.88;7.93;;;-0.10;99.90;;;;;;5015395;28;20234;-84
2020/12/27 08:46:06;;;;;;;20.02;8.50;;;0.00;99.90;;;;;;5014151;28;20294;-85
2020/12/27 08:48:38;;;;;;;12.85;9.35;;;0.10;99.90;;;;;;5015682;28;20203;-84
2020/12/27 08:51:06;;;;;;;17.50;9.43;;;0.20;99.90;;;;;;5014403;28;20258;-83
2020/12/27 08:53:40;;;;;;;15.30;7.82;;;0.20;99.90;;;;;;5016737;28;20250;-83
2020/12/27 08:56:09;;;;;;;18.98;13.07;;;0.30;99.90;;;;;;5016260;28;20199;-87
2020/12/27 08:58:36;;;;;;;11.35;7.47;;;0.50;99.90;;;;;;5013055;28;20745;-83
2020/12/27 09:01:03;;;;;;;7.20;6.50;;;0.40;99.90;;;;;;5015745;28;20302;-83
2020/12/27 09:03:29;;;;;;;25.30;13.38;;;0.40;99.90;;;;;;4996221;28;20292;-82
2020/12/27 09:05:55;;;;;;;8.63;6.18;;;0.50;99.90;;;;;;4975729;28;20307;-82
2020/12/27 09:08:22;;;;;;;7.45;5.10;;;0.50;99.90;;;;;;4976919;28;20323;-82
2020/12/27 09:10:48;;;;;;;6.22;5.07;;;0.50;99.90;;;;;;4987490;28;20322;-83
2020/12/27 09:13:17;;;;;;;5.45;3.75;;;0.60;99.90;;;;;;5007496;28;20675;-82
2020/12/27 09:15:46;;;;;;;3.78;3.08;;;0.60;99.90;;;;;;4996220;28;20212;-81
2020/12/27 09:18:14;;;;;;;5.68;3.92;;;0.70;99.90;;;;;;4996338;28;20299;-81
2020/12/27 09:20:42;;;;;;;4.07;3.55;;;0.70;99.90;;;;;;4994911;28;20207;-82
2020/12/27 09:23:13;;;;;;;8.00;4.55;;;0.70;99.90;;;;;;4996017;28;20740;-82
2020/12/27 09:25:39;;;;;;;4.65;3.85;;;0.80;99.90;;;;;;4995960;28;20208;-81
2020/12/27 09:28:13;;;;;;;5.70;3.35;;;0.90;99.90;;;;;;4995971;28;20207;-82
2020/12/27 09:30:40;;;;;;;8.85;4.88;;;0.90;99.90;;;;;;4995653;28;20608;-82
2020/12/27 09:33:08;;;;;;;4.28;3.85;;;1.00;99.90;;;;;;4995858;28;20211;-82
2020/12/27 09:35:36;;;;;;;5.97;4.55;;;1.10;99.90;;;;;;5000639;28;20207;-84
2020/12/27 09:38:02;;;;;;;6.85;4.70;;;1.10;99.90;;;;;;5014950;28;20203;-81
2020/12/27 09:40:29;;;;;;;4.28;3.50;;;1.40;99.90;;;;;;5015803;28;20630;-82
2020/12/27 09:43:03;;;;;;;5.20;4.40;;;1.40;99.90;;;;;;5020000;28;20250;-87
2020/12/27 09:45:31;;;;;;;8.15;4.95;;;1.30;99.90;;;;;;5015866;28;20217;-82
2020/12/27 09:47:59;;;;;;;8.13;5.63;;;1.40;99.90;;;;;;5015346;28;20235;-82
2020/12/27 09:50:28;;;;;;;7.30;5.22;;;1.40;99.90;;;;;;5014739;28;20326;-83
2020/12/27 09:52:55;;;;;;;8.32;6.15;;;1.40;99.90;;;;;;5013966;28;20299;-83
2020/12/27 09:55:22;;;;;;;9.10;6.45;;;1.40;99.90;;;;;;5014130;28;20295;-83
2020/12/27 09:57:48;;;;;;;4.88;4.05;;;1.50;99.90;;;;;;5014969;28;20211;-83
2020/12/27 10:00:14;;;;;;;6.28;5.40;;;1.60;99.90;;;;;;5015118;28;20258;-84
2020/12/27 10:02:41;;;;;;;9.13;5.00;;;1.80;99.90;;;;;;5014895;28;20294;-83
2020/12/27 10:05:07;;;;;;;5.57;4.38;;;1.80;99.90;;;;;;5014801;28;20302;-83
2020/12/27 10:07:35;;;;;;;6.45;5.30;;;1.90;99.90;;;;;;5013591;28;20287;-83
2020/12/27 10:10:02;;;;;;;7.07;5.75;;;1.90;99.90;;;;;;5014656;28;20346;-85
2020/12/27 10:12:29;;;;;;;8.70;6.63;;;1.90;99.90;;;;;;5014663;28;20641;-84
2020/12/27 10:14:55;;;;;;;7.78;5.75;;;2.00;99.90;;;;;;5014717;28;20668;-84
2020/12/27 10:17:21;;;;;;;7.70;5.10;;;2.00;99.90;;;;;;5014638;28;20211;-85
2020/12/27 10:19:48;;;;;;;5.20;4.25;;;2.10;99.90;;;;;;5014354;28;20207;-84
2020/12/27 10:22:15;;;;;;;5.30;4.07;;;2.10;99.90;;;;;;5013205;28;20261;-83
2020/12/27 10:24:42;;;;;;;4.78;3.92;;;2.10;99.90;;;;;;5014300;28;20216;-84
2020/12/27 10:27:09;;;;;;;7.95;6.18;;;2.20;99.90;;;;;;5014425;28;20291;-83
2020/12/27 10:29:36;;;;;;;4.90;3.97;;;2.20;99.90;;;;;;5014437;28;20318;-83
2020/12/27 10:32:04;;;;;;;9.20;4.53;;;2.20;99.90;;;;;;5014491;28;20246;-82
2020/12/27 10:34:30;;;;;;;4.63;3.75;;;2.30;99.90;;;;;;5014199;28;20243;-83
2020/12/27 10:36:59;;;;;;;5.18;4.10;;;2.30;99.90;;;;;;5011987;28;20282;-82
2020/12/27 10:39:26;;;;;;;6.15;4.03;;;2.40;99.90;;;;;;5014337;28;20294;-83
2020/12/27 10:41:54;;;;;;;7.35;3.78;;;2.40;99.90;;;;;;5014103;28;20211;-83
2020/12/27 10:44:21;;;;;;;6.78;4.07;;;2.30;99.90;;;;;;5014082;28;20237;-82
2020/12/27 10:46:49;;;;;;;4.60;4.13;;;2.30;99.90;;;;;;5013842;28;20214;-82
2020/12/27 10:49:16;;;;;;;6.03;5.03;;;2.30;99.90;;;;;;5013606;28;20865;-82
2020/12/27 10:51:42;;;;;;;5.18;4.65;;;2.40;99.90;;;;;;5012412;28;20738;-82
2020/12/27 10:54:11;;;;;;;5.60;4.30;;;2.40;99.90;;;;;;5010715;28;20207;-83
2020/12/27 10:56:38;;;;;;;5.43;3.50;;;2.40;99.90;;;;;;4978372;28;20208;-82
2020/12/27 10:59:05;;;;;;;8.43;4.78;;;2.50;99.90;;;;;;5014072;28;20298;-86
2020/12/27 11:01:32;;;;;;;6.07;4.10;;;2.60;99.90;;;;;;5014016;28;20212;-84
2020/12/27 11:03:59;;;;;;;18.92;12.25;;;2.50;99.90;;;;;;5012907;28;20296;-81
2020/12/27 11:06:29;;;;;;;20.75;13.73;;;2.60;99.90;;;;;;5012518;28;20207;-82
2020/12/27 11:08:55;;;;;;;17.00;9.55;;;2.60;99.90;;;;;;4995707;28;20708;-82
2020/12/27 11:11:22;;;;;;;8.27;5.35;;;2.50;99.90;;;;;;4993473;28;20318;-83
2020/12/27 11:13:48;;;;;;;5.60;4.70;;;2.50;99.90;;;;;;4993913;28;20295;-82
2020/12/27 11:16:16;;;;;;;3.63;3.33;;;2.60;99.90;;;;;;4994173;28;20204;-83
2020/12/27 11:18:42;;;;;;;4.30;3.85;;;2.60;99.90;;;;;;4994052;28;20295;-83
2020/12/27 11:21:09;;;;;;;6.30;4.45;;;2.60;99.90;;;;;;4992489;28;20290;-81
2020/12/27 11:23:35;;;;;;;4.32;3.92;;;2.70;99.90;;;;;;4993761;28;20307;-82
2020/12/27 11:26:01;;;;;;;5.47;4.60;;;2.70;99.90;;;;;;4993909;28;20342;-82
2020/12/27 11:28:28;;;;;;;6.78;3.95;;;2.70;99.90;;;;;;4993963;28;20295;-82
2020/12/27 11:30:54;;;;;;;7.32;4.65;;;2.60;99.90;;;;;;4993821;28;20652;-82
2020/12/27 11:33:22;;;;;;;6.30;4.18;;;2.60;99.90;;;;;;4993737;28;20207;-82
2020/12/27 11:35:48;;;;;;;5.35;3.30;;;2.60;99.90;;;;;;5008454;28;20294;-82
2020/12/27 11:38:14;;;;;;;15.30;4.57;;;2.70;99.90;;;;;;5013154;28;20294;-81
2020/12/27 11:40:41;;;;;;;5.30;3.63;;;2.70;99.90;;;;;;5013150;28;20738;-81
2020/12/27 11:43:07;;;;;;;4.25;3.22;;;2.70;99.90;;;;;;5013271;28;20758;-81
2020/12/27 11:45:34;;;;;;;4.43;3.78;;;2.80;99.90;;;;;;5013226;28;20298;-81
2020/12/27 11:48:00;;;;;;;5.88;4.40;;;2.80;99.90;;;;;;5013267;28;20302;-82
2020/12/27 11:50:27;;;;;;;4.90;4.13;;;2.70;99.90;;;;;;5012675;28;20322;-81
2020/12/27 11:52:53;;;;;;;4.57;3.63;;;2.70;99.90;;;;;;5011948;28;20313;-81
2020/12/27 11:55:20;;;;;;;4.88;3.45;;;2.60;99.90;;;;;;5013007;28;20664;-81
2020/12/27 11:57:48;;;;;;;5.60;3.80;;;2.70;99.90;;;;;;5007042;28;20246;-82
2020/12/27 12:00:14;;;;;;;9.13;4.50;;;2.60;99.90;;;;;;5013199;28;20235;-82
2020/12/27 12:02:41;;;;;;;6.47;4.90;;;2.70;99.90;;;;;;5013044;28;20214;-81
2020/12/27 12:05:08;;;;;;;5.90;3.58;;;2.80;99.90;;;;;;5011510;28;20638;-80
2020/12/27 12:07:35;;;;;;;4.45;3.83;;;2.80;99.90;;;;;;5011728;28;20254;-82
2020/12/27 12:10:01;;;;;;;4.07;3.40;;;2.80;99.90;;;;;;5012764;28;20335;-82
2020/12/27 12:12:28;;;;;;;4.75;3.13;;;2.80;99.90;;;;;;5012969;28;20214;-82
2020/12/27 12:14:55;;;;;;;4.05;3.55;;;2.90;99.90;;;;;;5012959;28;20293;-82
2020/12/27 12:17:21;;;;;;;3.63;2.58;;;2.90;99.90;;;;;;5012840;28;20235;-81
2020/12/27 12:19:47;;;;;;;5.05;3.35;;;2.90;99.90;;;;;;5012520;28;20207;-81
2020/12/27 12:22:14;;;;;;;6.07;3.50;;;2.90;99.90;;;;;;5011582;28;20294;-81
2020/12/27 12:24:41;;;;;;;3.60;3.17;;;2.90;99.90;;;;;;5012997;28;20204;-82
2020/12/27 12:27:07;;;;;;;3.28;2.33;;;2.90;99.90;;;;;;5012853;28;20290;-81
2020/12/27 12:29:34;;;;;;;4.55;3.65;;;3.00;99.90;;;;;;5012638;28;20290;-83
2020/12/27 12:32:00;;;;;;;4.57;3.50;;;3.00;99.90;;;;;;5012792;28;20239;-82
2020/12/27 12:34:26;;;;;;;5.28;3.85;;;3.00;99.90;;;;;;5012270;28;20305;-82
2020/12/27 12:36:53;;;;;;;6.32;3.70;;;2.90;99.90;;;;;;5011439;28;20633;-81
2020/12/27 12:39:19;;;;;;;5.57;4.25;;;3.00;99.90;;;;;;5012618;28;20627;-82
2020/12/27 12:41:46;;;;;;;4.38;4.03;;;3.10;99.90;;;;;;5012738;28;20290;-82
2020/12/27 12:44:13;;;;;;;3.22;2.92;;;3.10;99.90;;;;;;5012576;28;20303;-82
2020/12/27 12:46:42;;;;;;;4.20;3.60;;;3.10;99.90;;;;;;5011470;28;20239;-82
2020/12/27 12:49:08;;;;;;;3.42;3.13;;;3.00;99.90;;;;;;5012880;28;20286;-81
2020/12/27 12:51:35;;;;;;;4.55;4.10;;;3.00;99.90;;;;;;5011289;28;20327;-81
2020/12/27 12:54:01;;;;;;;3.80;2.85;;;3.10;99.90;;;;;;5012582;28;20214;-80
2020/12/27 12:56:27;;;;;;;2.85;2.63;;;3.10;99.90;;;;;;5012683;28;20250;-82